sensor_id;sensor_type;location;lat;lon;timestamp;P1;durP1;ratioP1;P2;durP2;ratioP2
38529;SDS011;24301;54.332;48.386;2023-08-31T00:00:34;3.15;;;1.52;;
38529;SDS011;24301;54.332;48.386;2023-08-31T00:03:01;2.97;;;1.63;;
38529;SDS011;24301;54.332;48.386;2023-08-31T00:05:28;2.70;;;1.58;;
38529;SDS011;24301;54.332;48.386;2023-08-31T00:07:56;3.75;;;1.90;;
38529;SDS011;24301;54.332;48.386;2023-08-31T00:10:22;4.35;;;2.03;;
38529;SDS011;24301;54.332;48.386;2023-08-31T00:12:50;2.55;;;1.50;;
38529;SDS011;24301;54.332;48.386;2023-08-31T00:15:17;3.30;;;1.88;;
38529;SDS011;24301;54.332;48.386;2023-08-31T00:17:43;3.45;;;1.98;;
38529;SDS011;24301;54.332;48.386;2023-08-31T00:20:09;2.30;;;1.60;;
38529;SDS011;24301;54.332;48.386;2023-08-31T00:22:38;3.60;;;2.00;;
38529;SDS011;24301;54.332;48.386;2023-08-31T00:25:04;2.70;;;1.70;;
38529;SDS011;24301;54.332;48.386;2023-08-31T00:27:34;3.72;;;1.77;;
38529;SDS011;24301;54.332;48.386;2023-08-31T00:30:05;6.40;;;1.75;;
38529;SDS011;24301;54.332;48.386;2023-08-31T00:32:33;1.60;;;1.50;;
38529;SDS011;24301;54.332;48.386;2023-08-31T00:35:00;3.80;;;1.67;;
38529;SDS011;24301;54.332;48.386;2023-08-31T00:37:26;4.35;;;2.30;;
38529;SDS011;24301;54.332;48.386;2023-08-31T00:39:52;3.20;;;1.92;;
38529;SDS011;24301;54.332;48.386;2023-08-31T00:42:19;4.60;;;1.90;;
38529;SDS011;24301;54.332;48.386;2023-08-31T00:44:47;3.00;;;1.88;;
38529;SDS011;24301;54.332;48.386;2023-08-31T00:47:14;4.63;;;1.75;;
38529;SDS011;24301;54.332;48.386;2023-08-31T00:49:41;4.75;;;2.03;;
38529;SDS011;24301;54.332;48.386;2023-08-31T00:52:07;3.45;;;2.05;;
38529;SDS011;24301;54.332;48.386;2023-08-31T00:54:34;2.55;;;1.70;;
38529;SDS011;24301;54.332;48.386;2023-08-31T00:57:00;3.70;;;1.88;;
38529;SDS011;24301;54.332;48.386;2023-08-31T00:59:28;3.75;;;1.80;;
38529;SDS011;24301;54.332;48.386;2023-08-31T01:02:01;3.03;;;1.88;;
38529;SDS011;24301;54.332;48.386;2023-08-31T01:09:46;2.97;;;1.75;;
38529;SDS011;24301;54.332;48.386;2023-08-31T01:12:26;3.03;;;1.90;;
38529;SDS011;24301;54.332;48.386;2023-08-31T01:15:03;5.57;;;2.20;;
38529;SDS011;24301;54.332;48.386;2023-08-31T01:17:37;5.80;;;1.98;;
38529;SDS011;24301;54.332;48.386;2023-08-31T01:22:38;3.15;;;1.80;;
38529;SDS011;24301;54.332;48.386;2023-08-31T01:25:09;2.92;;;1.67;;
38529;SDS011;24301;54.332;48.386;2023-08-31T01:27:38;6.35;;;2.42;;
38529;SDS011;24301;54.332;48.386;2023-08-31T01:30:06;3.90;;;2.20;;
38529;SDS011;24301;54.332;48.386;2023-08-31T01:32:33;10.57;;;2.30;;
38529;SDS011;24301;54.332;48.386;2023-08-31T01:35:00;7.03;;;2.15;;
38529;SDS011;24301;54.332;48.386;2023-08-31T01:37:34;5.10;;;1.80;;
38529;SDS011;24301;54.332;48.386;2023-08-31T01:43:09;4.68;;;2.20;;
38529;SDS011;24301;54.332;48.386;2023-08-31T01:45:36;3.53;;;2.05;;
38529;SDS011;24301;54.332;48.386;2023-08-31T01:48:04;2.15;;;1.63;;
38529;SDS011;24301;54.332;48.386;2023-08-31T01:50:30;2.95;;;2.00;;
38529;SDS011;24301;54.332;48.386;2023-08-31T01:52:56;5.28;;;1.98;;
38529;SDS011;24301;54.332;48.386;2023-08-31T01:55:22;3.53;;;2.30;;
38529;SDS011;24301;54.332;48.386;2023-08-31T01:57:49;4.32;;;2.25;;
38529;SDS011;24301;54.332;48.386;2023-08-31T02:00:18;5.00;;;2.20;;
38529;SDS011;24301;54.332;48.386;2023-08-31T02:02:47;1.98;;;1.42;;
38529;SDS011;24301;54.332;48.386;2023-08-31T02:05:13;4.60;;;2.00;;
38529;SDS011;24301;54.332;48.386;2023-08-31T02:07:39;2.90;;;2.03;;
38529;SDS011;24301;54.332;48.386;2023-08-31T02:10:06;4.97;;;2.10;;
38529;SDS011;24301;54.332;48.386;2023-08-31T02:12:53;3.55;;;1.98;;
38529;SDS011;24301;54.332;48.386;2023-08-31T02:15:19;4.97;;;2.17;;
38529;SDS011;24301;54.332;48.386;2023-08-31T02:17:45;3.25;;;1.70;;
38529;SDS011;24301;54.332;48.386;2023-08-31T02:20:11;2.60;;;1.83;;
38529;SDS011;24301;54.332;48.386;2023-08-31T02:22:39;4.30;;;2.30;;
38529;SDS011;24301;54.332;48.386;2023-08-31T02:25:06;3.80;;;2.25;;
38529;SDS011;24301;54.332;48.386;2023-08-31T02:27:32;2.75;;;1.90;;
38529;SDS011;24301;54.332;48.386;2023-08-31T02:29:58;3.25;;;2.10;;
38529;SDS011;24301;54.332;48.386;2023-08-31T02:32:24;3.92;;;2.13;;
38529;SDS011;24301;54.332;48.386;2023-08-31T02:34:49;3.25;;;2.20;;
38529;SDS011;24301;54.332;48.386;2023-08-31T02:37:16;8.35;;;2.28;;
38529;SDS011;24301;54.332;48.386;2023-08-31T02:39:43;2.67;;;1.75;;
38529;SDS011;24301;54.332;48.386;2023-08-31T02:42:09;3.35;;;1.90;;
38529;SDS011;24301;54.332;48.386;2023-08-31T02:44:35;4.80;;;1.70;;
38529;SDS011;24301;54.332;48.386;2023-08-31T02:47:01;5.22;;;2.00;;
38529;SDS011;24301;54.332;48.386;2023-08-31T02:49:27;7.13;;;2.33;;
38529;SDS011;24301;54.332;48.386;2023-08-31T02:51:55;3.45;;;2.00;;
38529;SDS011;24301;54.332;48.386;2023-08-31T02:54:22;4.05;;;1.80;;
38529;SDS011;24301;54.332;48.386;2023-08-31T02:56:48;3.13;;;1.52;;
38529;SDS011;24301;54.332;48.386;2023-08-31T02:59:14;3.42;;;1.73;;
38529;SDS011;24301;54.332;48.386;2023-08-31T03:01:40;4.20;;;1.67;;
38529;SDS011;24301;54.332;48.386;2023-08-31T03:04:06;4.03;;;1.80;;
38529;SDS011;24301;54.332;48.386;2023-08-31T03:06:32;2.47;;;1.75;;
38529;SDS011;24301;54.332;48.386;2023-08-31T03:08:58;4.28;;;1.63;;
38529;SDS011;24301;54.332;48.386;2023-08-31T03:11:24;3.30;;;2.30;;
38529;SDS011;24301;54.332;48.386;2023-08-31T03:13:50;3.22;;;1.73;;
38529;SDS011;24301;54.332;48.386;2023-08-31T03:16:16;4.75;;;2.25;;
38529;SDS011;24301;54.332;48.386;2023-08-31T03:18:42;4.05;;;1.75;;
38529;SDS011;24301;54.332;48.386;2023-08-31T03:21:08;3.35;;;1.70;;
38529;SDS011;24301;54.332;48.386;2023-08-31T03:23:34;4.90;;;1.90;;
38529;SDS011;24301;54.332;48.386;2023-08-31T03:26:06;2.65;;;1.65;;
38529;SDS011;24301;54.332;48.386;2023-08-31T03:28:33;4.40;;;2.00;;
38529;SDS011;24301;54.332;48.386;2023-08-31T03:30:59;4.93;;;1.90;;
38529;SDS011;24301;54.332;48.386;2023-08-31T03:33:27;2.92;;;1.80;;
38529;SDS011;24301;54.332;48.386;2023-08-31T03:35:59;5.65;;;1.80;;
38529;SDS011;24301;54.332;48.386;2023-08-31T03:38:26;2.47;;;1.63;;
38529;SDS011;24301;54.332;48.386;2023-08-31T03:40:53;3.08;;;1.90;;
38529;SDS011;24301;54.332;48.386;2023-08-31T03:43:20;5.38;;;1.40;;
38529;SDS011;24301;54.332;48.386;2023-08-31T03:45:46;2.83;;;1.70;;
38529;SDS011;24301;54.332;48.386;2023-08-31T03:48:12;3.78;;;1.80;;
38529;SDS011;24301;54.332;48.386;2023-08-31T03:50:37;3.20;;;1.70;;
38529;SDS011;24301;54.332;48.386;2023-08-31T03:53:05;4.03;;;1.58;;
38529;SDS011;24301;54.332;48.386;2023-08-31T03:55:30;2.75;;;1.60;;
38529;SDS011;24301;54.332;48.386;2023-08-31T03:57:56;3.20;;;1.70;;
38529;SDS011;24301;54.332;48.386;2023-08-31T04:00:22;5.68;;;1.85;;
38529;SDS011;24301;54.332;48.386;2023-08-31T04:02:48;3.10;;;1.80;;
38529;SDS011;24301;54.332;48.386;2023-08-31T04:05:19;4.57;;;2.03;;
38529;SDS011;24301;54.332;48.386;2023-08-31T04:07:44;3.80;;;2.58;;
38529;SDS011;24301;54.332;48.386;2023-08-31T04:10:10;3.38;;;1.92;;
38529;SDS011;24301;54.332;48.386;2023-08-31T04:12:36;7.00;;;2.15;;
38529;SDS011;24301;54.332;48.386;2023-08-31T04:15:02;3.75;;;1.90;;
38529;SDS011;24301;54.332;48.386;2023-08-31T04:17:29;3.13;;;1.77;;
38529;SDS011;24301;54.332;48.386;2023-08-31T04:19:55;3.05;;;1.67;;
38529;SDS011;24301;54.332;48.386;2023-08-31T04:22:21;3.53;;;1.77;;
38529;SDS011;24301;54.332;48.386;2023-08-31T04:24:47;2.42;;;1.55;;
38529;SDS011;24301;54.332;48.386;2023-08-31T04:27:12;2.70;;;1.90;;
38529;SDS011;24301;54.332;48.386;2023-08-31T04:29:38;3.92;;;1.80;;
38529;SDS011;24301;54.332;48.386;2023-08-31T04:32:04;2.10;;;1.40;;
38529;SDS011;24301;54.332;48.386;2023-08-31T04:34:30;2.03;;;1.75;;
38529;SDS011;24301;54.332;48.386;2023-08-31T04:36:56;2.53;;;1.60;;
38529;SDS011;24301;54.332;48.386;2023-08-31T04:39:22;2.00;;;1.40;;
38529;SDS011;24301;54.332;48.386;2023-08-31T04:41:48;3.67;;;1.75;;
38529;SDS011;24301;54.332;48.386;2023-08-31T04:44:13;4.22;;;2.10;;
38529;SDS011;24301;54.332;48.386;2023-08-31T04:46:39;4.40;;;1.88;;
38529;SDS011;24301;54.332;48.386;2023-08-31T04:49:05;2.85;;;1.70;;
38529;SDS011;24301;54.332;48.386;2023-08-31T04:51:31;2.20;;;1.83;;
38529;SDS011;24301;54.332;48.386;2023-08-31T04:53:58;3.97;;;2.13;;
38529;SDS011;24301;54.332;48.386;2023-08-31T04:56:24;3.08;;;1.27;;
38529;SDS011;24301;54.332;48.386;2023-08-31T04:58:51;1.52;;;1.42;;
38529;SDS011;24301;54.332;48.386;2023-08-31T07:10:16;1.58;;;1.20;;
38529;SDS011;24301;54.332;48.386;2023-08-31T07:12:42;1.20;;;1.10;;
38529;SDS011;24301;54.332;48.386;2023-08-31T07:15:08;1.30;;;1.20;;
38529;SDS011;24301;54.332;48.386;2023-08-31T07:17:34;1.48;;;1.00;;
38529;SDS011;24301;54.332;48.386;2023-08-31T07:20:00;2.15;;;1.40;;
38529;SDS011;24301;54.332;48.386;2023-08-31T07:22:26;1.38;;;1.27;;
38529;SDS011;24301;54.332;48.386;2023-08-31T07:24:51;2.28;;;1.45;;
38529;SDS011;24301;54.332;48.386;2023-08-31T07:27:17;1.70;;;1.20;;
38529;SDS011;24301;54.332;48.386;2023-08-31T07:29:43;1.55;;;1.17;;
38529;SDS011;24301;54.332;48.386;2023-08-31T07:32:09;2.08;;;1.20;;
38529;SDS011;24301;54.332;48.386;2023-08-31T07:34:34;4.10;;;1.50;;
38529;SDS011;24301;54.332;48.386;2023-08-31T07:37:01;2.50;;;1.15;;
38529;SDS011;24301;54.332;48.386;2023-08-31T09:33:17;2.03;;;1.33;;
38529;SDS011;24301;54.332;48.386;2023-08-31T09:35:50;2.28;;;1.60;;
38529;SDS011;24301;54.332;48.386;2023-08-31T09:38:17;1.92;;;1.50;;
38529;SDS011;24301;54.332;48.386;2023-08-31T09:40:44;1.65;;;1.30;;
38529;SDS011;24301;54.332;48.386;2023-08-31T09:43:09;2.10;;;1.60;;
38529;SDS011;24301;54.332;48.386;2023-08-31T09:45:35;2.40;;;1.30;;
38529;SDS011;24301;54.332;48.386;2023-08-31T09:48:03;2.28;;;1.35;;
38529;SDS011;24301;54.332;48.386;2023-08-31T09:50:30;2.72;;;1.90;;
38529;SDS011;24301;54.332;48.386;2023-08-31T09:53:00;2.33;;;1.70;;
38529;SDS011;24301;54.332;48.386;2023-08-31T09:55:30;1.60;;;1.30;;
38529;SDS011;24301;54.332;48.386;2023-08-31T09:57:59;2.10;;;1.63;;
38529;SDS011;24301;54.332;48.386;2023-08-31T10:00:26;2.05;;;1.60;;
38529;SDS011;24301;54.332;48.386;2023-08-31T10:02:55;2.35;;;1.45;;
38529;SDS011;24301;54.332;48.386;2023-08-31T10:05:31;2.80;;;1.33;;
38529;SDS011;24301;54.332;48.386;2023-08-31T10:07:58;2.67;;;1.40;;
38529;SDS011;24301;54.332;48.386;2023-08-31T10:10:26;2.20;;;1.42;;
38529;SDS011;24301;54.332;48.386;2023-08-31T10:12:54;1.48;;;1.38;;
38529;SDS011;24301;54.332;48.386;2023-08-31T10:15:21;2.75;;;1.70;;
38529;SDS011;24301;54.332;48.386;2023-08-31T10:17:48;7.47;;;2.22;;
38529;SDS011;24301;54.332;48.386;2023-08-31T10:20:15;7.75;;;2.53;;
38529;SDS011;24301;54.332;48.386;2023-08-31T10:22:43;2.38;;;1.63;;
38529;SDS011;24301;54.332;48.386;2023-08-31T10:25:10;2.95;;;2.00;;
38529;SDS011;24301;54.332;48.386;2023-08-31T10:27:43;1.88;;;1.73;;
38529;SDS011;24301;54.332;48.386;2023-08-31T10:38:22;2.78;;;1.88;;
38529;SDS011;24301;54.332;48.386;2023-08-31T10:46:25;3.42;;;2.50;;
38529;SDS011;24301;54.332;48.386;2023-08-31T10:51:41;1.67;;;1.40;;
38529;SDS011;24301;54.332;48.386;2023-08-31T10:57:21;2.15;;;1.80;;
38529;SDS011;24301;54.332;48.386;2023-08-31T10:59:44;3.35;;;2.35;;
38529;SDS011;24301;54.332;48.386;2023-08-31T11:07:41;3.05;;;2.38;;
38529;SDS011;24301;54.332;48.386;2023-08-31T11:10:11;7.40;;;2.47;;
38529;SDS011;24301;54.332;48.386;2023-08-31T11:12:53;3.42;;;1.38;;
38529;SDS011;24301;54.332;48.386;2023-08-31T11:15:22;4.40;;;1.38;;
38529;SDS011;24301;54.332;48.386;2023-08-31T11:17:50;1.20;;;1.10;;
38529;SDS011;24301;54.332;48.386;2023-08-31T11:20:18;4.95;;;1.63;;
38529;SDS011;24301;54.332;48.386;2023-08-31T11:22:49;1.88;;;1.30;;
38529;SDS011;24301;54.332;48.386;2023-08-31T11:25:17;4.28;;;2.30;;
38529;SDS011;24301;54.332;48.386;2023-08-31T11:27:54;2.90;;;1.67;;
38529;SDS011;24301;54.332;48.386;2023-08-31T11:30:20;1.98;;;1.55;;
38529;SDS011;24301;54.332;48.386;2023-08-31T11:32:50;3.75;;;1.77;;
38529;SDS011;24301;54.332;48.386;2023-08-31T11:35:18;4.65;;;1.60;;
38529;SDS011;24301;54.332;48.386;2023-08-31T11:37:49;4.30;;;1.92;;
38529;SDS011;24301;54.332;48.386;2023-08-31T11:40:17;3.88;;;2.03;;
38529;SDS011;24301;54.332;48.386;2023-08-31T11:42:43;4.07;;;1.65;;
38529;SDS011;24301;54.332;48.386;2023-08-31T11:45:10;3.80;;;1.92;;
38529;SDS011;24301;54.332;48.386;2023-08-31T11:47:39;2.03;;;1.30;;
38529;SDS011;24301;54.332;48.386;2023-08-31T11:50:06;4.63;;;1.73;;
38529;SDS011;24301;54.332;48.386;2023-08-31T11:52:33;3.55;;;1.90;;
38529;SDS011;24301;54.332;48.386;2023-08-31T11:54:59;3.58;;;2.15;;
38529;SDS011;24301;54.332;48.386;2023-08-31T11:57:25;11.98;;;1.92;;
38529;SDS011;24301;54.332;48.386;2023-08-31T11:59:52;2.38;;;1.90;;
38529;SDS011;24301;54.332;48.386;2023-08-31T12:02:18;5.50;;;2.03;;
38529;SDS011;24301;54.332;48.386;2023-08-31T12:04:45;2.38;;;1.70;;
38529;SDS011;24301;54.332;48.386;2023-08-31T12:07:16;3.15;;;1.80;;
38529;SDS011;24301;54.332;48.386;2023-08-31T12:09:43;2.60;;;1.73;;
38529;SDS011;24301;54.332;48.386;2023-08-31T12:12:10;2.53;;;1.52;;
38529;SDS011;24301;54.332;48.386;2023-08-31T12:14:37;2.63;;;1.40;;
38529;SDS011;24301;54.332;48.386;2023-08-31T12:17:07;2.20;;;1.73;;
38529;SDS011;24301;54.332;48.386;2023-08-31T12:19:36;4.82;;;1.38;;
38529;SDS011;24301;54.332;48.386;2023-08-31T12:22:02;3.20;;;1.27;;
38529;SDS011;24301;54.332;48.386;2023-08-31T12:24:29;3.00;;;1.17;;
38529;SDS011;24301;54.332;48.386;2023-08-31T12:27:02;3.20;;;1.42;;
38529;SDS011;24301;54.332;48.386;2023-08-31T12:29:28;2.38;;;1.58;;
38529;SDS011;24301;54.332;48.386;2023-08-31T12:31:53;3.42;;;2.30;;
38529;SDS011;24301;54.332;48.386;2023-08-31T12:34:20;2.80;;;1.70;;
38529;SDS011;24301;54.332;48.386;2023-08-31T12:36:45;3.05;;;1.90;;
38529;SDS011;24301;54.332;48.386;2023-08-31T12:39:11;2.08;;;1.65;;
38529;SDS011;24301;54.332;48.386;2023-08-31T12:41:39;6.35;;;1.73;;
38529;SDS011;24301;54.332;48.386;2023-08-31T12:44:05;4.43;;;1.70;;
38529;SDS011;24301;54.332;48.386;2023-08-31T12:46:38;2.03;;;1.45;;
38529;SDS011;24301;54.332;48.386;2023-08-31T12:49:05;3.33;;;1.77;;
38529;SDS011;24301;54.332;48.386;2023-08-31T12:51:31;3.50;;;2.15;;
38529;SDS011;24301;54.332;48.386;2023-08-31T12:53:57;3.30;;;1.98;;
38529;SDS011;24301;54.332;48.386;2023-08-31T12:56:23;3.92;;;1.60;;
38529;SDS011;24301;54.332;48.386;2023-08-31T12:58:53;2.60;;;1.50;;
38529;SDS011;24301;54.332;48.386;2023-08-31T13:01:19;3.03;;;1.50;;
38529;SDS011;24301;54.332;48.386;2023-08-31T13:03:52;2.65;;;1.67;;
38529;SDS011;24301;54.332;48.386;2023-08-31T13:06:18;3.58;;;1.45;;
38529;SDS011;24301;54.332;48.386;2023-08-31T13:08:44;1.42;;;1.25;;
38529;SDS011;24301;54.332;48.386;2023-08-31T13:11:11;2.13;;;1.35;;
38529;SDS011;24301;54.332;48.386;2023-08-31T13:13:38;3.50;;;1.40;;
38529;SDS011;24301;54.332;48.386;2023-08-31T13:16:04;3.97;;;1.80;;
38529;SDS011;24301;54.332;48.386;2023-08-31T13:18:30;3.42;;;1.73;;
38529;SDS011;24301;54.332;48.386;2023-08-31T13:20:56;3.22;;;1.45;;
38529;SDS011;24301;54.332;48.386;2023-08-31T13:23:22;9.88;;;1.80;;
38529;SDS011;24301;54.332;48.386;2023-08-31T13:25:49;3.90;;;1.60;;
38529;SDS011;24301;54.332;48.386;2023-08-31T13:28:16;2.50;;;1.70;;
38529;SDS011;24301;54.332;48.386;2023-08-31T13:30:42;4.45;;;1.50;;
38529;SDS011;24301;54.332;48.386;2023-08-31T13:33:08;3.97;;;1.67;;
38529;SDS011;24301;54.332;48.386;2023-08-31T13:35:34;3.53;;;1.80;;
38529;SDS011;24301;54.332;48.386;2023-08-31T13:38:01;4.63;;;1.70;;
38529;SDS011;24301;54.332;48.386;2023-08-31T13:40:29;2.58;;;1.85;;
38529;SDS011;24301;54.332;48.386;2023-08-31T13:42:55;4.45;;;2.42;;
38529;SDS011;24301;54.332;48.386;2023-08-31T13:45:25;4.13;;;2.22;;
38529;SDS011;24301;54.332;48.386;2023-08-31T13:47:51;4.60;;;1.80;;
38529;SDS011;24301;54.332;48.386;2023-08-31T13:50:18;6.13;;;3.28;;
38529;SDS011;24301;54.332;48.386;2023-08-31T13:52:44;4.35;;;2.00;;
38529;SDS011;24301;54.332;48.386;2023-08-31T13:55:10;4.90;;;2.00;;
38529;SDS011;24301;54.332;48.386;2023-08-31T13:57:37;2.42;;;1.63;;
38529;SDS011;24301;54.332;48.386;2023-08-31T14:00:04;2.33;;;1.85;;
38529;SDS011;24301;54.332;48.386;2023-08-31T14:02:35;3.13;;;1.70;;
38529;SDS011;24301;54.332;48.386;2023-08-31T14:05:03;6.30;;;2.42;;
38529;SDS011;24301;54.332;48.386;2023-08-31T14:07:32;10.25;;;4.93;;
38529;SDS011;24301;54.332;48.386;2023-08-31T14:09:58;13.23;;;7.00;;
38529;SDS011;24301;54.332;48.386;2023-08-31T14:12:24;6.50;;;4.75;;
38529;SDS011;24301;54.332;48.386;2023-08-31T14:14:52;4.22;;;2.40;;
38529;SDS011;24301;54.332;48.386;2023-08-31T14:17:20;3.67;;;1.90;;
38529;SDS011;24301;54.332;48.386;2023-08-31T14:19:46;7.65;;;2.25;;
38529;SDS011;24301;54.332;48.386;2023-08-31T14:22:12;6.63;;;1.90;;
38529;SDS011;24301;54.332;48.386;2023-08-31T14:24:38;4.28;;;1.70;;
38529;SDS011;24301;54.332;48.386;2023-08-31T14:27:04;4.95;;;2.05;;
38529;SDS011;24301;54.332;48.386;2023-08-31T14:29:31;2.97;;;1.52;;
38529;SDS011;24301;54.332;48.386;2023-08-31T14:31:57;3.45;;;2.15;;
38529;SDS011;24301;54.332;48.386;2023-08-31T14:34:23;1.70;;;1.40;;
38529;SDS011;24301;54.332;48.386;2023-08-31T14:36:50;3.80;;;1.90;;
38529;SDS011;24301;54.332;48.386;2023-08-31T14:39:18;3.38;;;2.00;;
38529;SDS011;24301;54.332;48.386;2023-08-31T14:41:44;5.82;;;2.00;;
38529;SDS011;24301;54.332;48.386;2023-08-31T14:44:10;7.63;;;3.00;;
38529;SDS011;24301;54.332;48.386;2023-08-31T14:46:35;7.45;;;3.40;;
38529;SDS011;24301;54.332;48.386;2023-08-31T14:49:01;7.32;;;4.63;;
38529;SDS011;24301;54.332;48.386;2023-08-31T14:51:27;6.07;;;4.10;;
38529;SDS011;24301;54.332;48.386;2023-08-31T14:53:53;4.18;;;3.03;;
38529;SDS011;24301;54.332;48.386;2023-08-31T14:56:19;3.95;;;2.65;;
38529;SDS011;24301;54.332;48.386;2023-08-31T14:58:45;9.82;;;2.90;;
38529;SDS011;24301;54.332;48.386;2023-08-31T15:01:11;6.50;;;2.85;;
38529;SDS011;24301;54.332;48.386;2023-08-31T15:03:37;5.10;;;2.67;;
38529;SDS011;24301;54.332;48.386;2023-08-31T15:06:03;5.22;;;2.10;;
38529;SDS011;24301;54.332;48.386;2023-08-31T15:08:39;3.92;;;2.30;;
38529;SDS011;24301;54.332;48.386;2023-08-31T15:11:09;7.40;;;2.55;;
38529;SDS011;24301;54.332;48.386;2023-08-31T15:13:35;5.35;;;3.03;;
38529;SDS011;24301;54.332;48.386;2023-08-31T15:16:01;4.10;;;3.05;;
38529;SDS011;24301;54.332;48.386;2023-08-31T15:18:27;4.82;;;2.50;;
38529;SDS011;24301;54.332;48.386;2023-08-31T15:20:54;2.97;;;2.40;;
38529;SDS011;24301;54.332;48.386;2023-08-31T15:23:20;6.05;;;2.78;;
38529;SDS011;24301;54.332;48.386;2023-08-31T15:25:47;3.58;;;2.13;;
38529;SDS011;24301;54.332;48.386;2023-08-31T15:28:15;2.00;;;1.63;;
38529;SDS011;24301;54.332;48.386;2023-08-31T15:30:41;3.83;;;1.38;;
38529;SDS011;24301;54.332;48.386;2023-08-31T15:33:07;3.00;;;1.80;;
38529;SDS011;24301;54.332;48.386;2023-08-31T15:35:33;3.30;;;1.60;;
38529;SDS011;24301;54.332;48.386;2023-08-31T15:37:59;11.85;;;3.90;;
38529;SDS011;24301;54.332;48.386;2023-08-31T15:40:25;7.93;;;3.88;;
38529;SDS011;24301;54.332;48.386;2023-08-31T15:42:51;5.97;;;2.78;;
38529;SDS011;24301;54.332;48.386;2023-08-31T15:45:18;4.45;;;2.08;;
38529;SDS011;24301;54.332;48.386;2023-08-31T15:47:44;2.78;;;1.65;;
38529;SDS011;24301;54.332;48.386;2023-08-31T15:50:11;5.07;;;1.60;;
38529;SDS011;24301;54.332;48.386;2023-08-31T15:52:37;2.58;;;1.50;;
38529;SDS011;24301;54.332;48.386;2023-08-31T15:55:04;6.30;;;2.15;;
38529;SDS011;24301;54.332;48.386;2023-08-31T15:57:31;2.72;;;1.77;;
38529;SDS011;24301;54.332;48.386;2023-08-31T16:00:00;2.42;;;1.40;;
38529;SDS011;24301;54.332;48.386;2023-08-31T16:02:26;3.08;;;1.48;;
38529;SDS011;24301;54.332;48.386;2023-08-31T16:04:52;5.38;;;1.75;;
38529;SDS011;24301;54.332;48.386;2023-08-31T16:07:19;2.72;;;1.90;;
38529;SDS011;24301;54.332;48.386;2023-08-31T16:09:45;3.63;;;1.70;;
38529;SDS011;24301;54.332;48.386;2023-08-31T16:12:12;2.60;;;1.88;;
38529;SDS011;24301;54.332;48.386;2023-08-31T16:14:38;3.47;;;1.70;;
38529;SDS011;24301;54.332;48.386;2023-08-31T16:17:04;2.30;;;1.52;;
38529;SDS011;24301;54.332;48.386;2023-08-31T16:19:31;2.40;;;1.45;;
38529;SDS011;24301;54.332;48.386;2023-08-31T16:21:58;2.13;;;1.60;;
38529;SDS011;24301;54.332;48.386;2023-08-31T16:24:23;3.70;;;2.15;;
38529;SDS011;24301;54.332;48.386;2023-08-31T16:26:49;4.47;;;2.05;;
38529;SDS011;24301;54.332;48.386;2023-08-31T16:29:15;3.97;;;2.22;;
38529;SDS011;24301;54.332;48.386;2023-08-31T16:31:42;6.13;;;2.38;;
38529;SDS011;24301;54.332;48.386;2023-08-31T16:34:08;8.88;;;2.90;;
38529;SDS011;24301;54.332;48.386;2023-08-31T16:36:34;5.68;;;2.78;;
38529;SDS011;24301;54.332;48.386;2023-08-31T16:39:00;5.82;;;3.15;;
38529;SDS011;24301;54.332;48.386;2023-08-31T16:41:27;5.93;;;3.30;;
38529;SDS011;24301;54.332;48.386;2023-08-31T16:43:53;6.45;;;3.40;;
38529;SDS011;24301;54.332;48.386;2023-08-31T16:46:21;6.20;;;3.63;;
38529;SDS011;24301;54.332;48.386;2023-08-31T16:48:48;4.45;;;2.65;;
38529;SDS011;24301;54.332;48.386;2023-08-31T16:51:14;6.90;;;3.42;;
38529;SDS011;24301;54.332;48.386;2023-08-31T16:53:39;5.25;;;2.72;;
38529;SDS011;24301;54.332;48.386;2023-08-31T16:56:05;4.47;;;2.30;;
38529;SDS011;24301;54.332;48.386;2023-08-31T16:58:31;4.40;;;2.30;;
38529;SDS011;24301;54.332;48.386;2023-08-31T17:00:58;3.35;;;2.22;;
38529;SDS011;24301;54.332;48.386;2023-08-31T17:03:24;4.57;;;2.03;;
38529;SDS011;24301;54.332;48.386;2023-08-31T17:05:53;3.22;;;1.83;;
38529;SDS011;24301;54.332;48.386;2023-08-31T17:08:20;6.45;;;1.65;;
38529;SDS011;24301;54.332;48.386;2023-08-31T17:10:47;2.35;;;1.80;;
38529;SDS011;24301;54.332;48.386;2023-08-31T17:13:14;1.60;;;1.48;;
38529;SDS011;24301;54.332;48.386;2023-08-31T17:15:40;4.47;;;1.73;;
38529;SDS011;24301;54.332;48.386;2023-08-31T17:18:06;2.47;;;1.90;;
38529;SDS011;24301;54.332;48.386;2023-08-31T17:20:32;3.60;;;2.08;;
38529;SDS011;24301;54.332;48.386;2023-08-31T17:22:59;6.32;;;1.98;;
38529;SDS011;24301;54.332;48.386;2023-08-31T17:25:25;6.30;;;2.00;;
38529;SDS011;24301;54.332;48.386;2023-08-31T17:27:54;1.85;;;1.20;;
38529;SDS011;24301;54.332;48.386;2023-08-31T17:30:21;2.10;;;1.40;;
38529;SDS011;24301;54.332;48.386;2023-08-31T17:32:46;1.45;;;1.20;;
38529;SDS011;24301;54.332;48.386;2023-08-31T17:35:12;1.92;;;1.40;;
38529;SDS011;24301;54.332;48.386;2023-08-31T17:37:39;4.05;;;1.90;;
38529;SDS011;24301;54.332;48.386;2023-08-31T17:40:05;3.25;;;1.95;;
38529;SDS011;24301;54.332;48.386;2023-08-31T17:42:33;3.55;;;1.85;;
38529;SDS011;24301;54.332;48.386;2023-08-31T17:45:03;1.90;;;1.50;;
38529;SDS011;24301;54.332;48.386;2023-08-31T17:47:34;3.65;;;1.95;;
38529;SDS011;24301;54.332;48.386;2023-08-31T17:50:00;5.35;;;1.73;;
38529;SDS011;24301;54.332;48.386;2023-08-31T17:52:30;5.78;;;1.70;;
38529;SDS011;24301;54.332;48.386;2023-08-31T17:54:56;2.63;;;1.40;;
38529;SDS011;24301;54.332;48.386;2023-08-31T17:57:22;2.50;;;1.50;;
38529;SDS011;24301;54.332;48.386;2023-08-31T17:59:50;3.78;;;1.30;;
38529;SDS011;24301;54.332;48.386;2023-08-31T18:02:18;1.77;;;1.35;;
38529;SDS011;24301;54.332;48.386;2023-08-31T18:04:50;2.70;;;1.75;;
38529;SDS011;24301;54.332;48.386;2023-08-31T18:07:38;3.15;;;1.75;;
38529;SDS011;24301;54.332;48.386;2023-08-31T18:10:04;1.45;;;1.20;;
38529;SDS011;24301;54.332;48.386;2023-08-31T18:12:30;4.25;;;1.45;;
38529;SDS011;24301;54.332;48.386;2023-08-31T18:14:56;2.17;;;1.40;;
38529;SDS011;24301;54.332;48.386;2023-08-31T18:17:30;2.03;;;1.38;;
38529;SDS011;24301;54.332;48.386;2023-08-31T18:19:55;3.72;;;1.45;;
38529;SDS011;24301;54.332;48.386;2023-08-31T18:22:24;4.85;;;1.83;;
38529;SDS011;24301;54.332;48.386;2023-08-31T18:24:52;3.38;;;1.33;;
38529;SDS011;24301;54.332;48.386;2023-08-31T18:27:18;2.25;;;1.30;;
38529;SDS011;24301;54.332;48.386;2023-08-31T18:29:47;2.00;;;1.20;;
38529;SDS011;24301;54.332;48.386;2023-08-31T18:32:13;2.20;;;1.38;;
38529;SDS011;24301;54.332;48.386;2023-08-31T18:34:39;2.17;;;1.50;;
38529;SDS011;24301;54.332;48.386;2023-08-31T18:37:06;4.35;;;1.42;;
38529;SDS011;24301;54.332;48.386;2023-08-31T18:39:32;8.15;;;2.28;;
38529;SDS011;24301;54.332;48.386;2023-08-31T18:41:59;2.50;;;1.55;;
38529;SDS011;24301;54.332;48.386;2023-08-31T18:44:27;3.83;;;2.13;;
38529;SDS011;24301;54.332;48.386;2023-08-31T18:46:53;3.25;;;1.58;;
38529;SDS011;24301;54.332;48.386;2023-08-31T18:49:20;4.60;;;1.40;;
38529;SDS011;24301;54.332;48.386;2023-08-31T18:51:45;2.50;;;1.35;;
38529;SDS011;24301;54.332;48.386;2023-08-31T18:54:13;1.95;;;1.17;;
38529;SDS011;24301;54.332;48.386;2023-08-31T18:56:39;3.20;;;1.45;;
38529;SDS011;24301;54.332;48.386;2023-08-31T18:59:06;2.33;;;1.45;;
38529;SDS011;24301;54.332;48.386;2023-08-31T19:01:33;2.70;;;1.45;;
38529;SDS011;24301;54.332;48.386;2023-08-31T19:03:59;2.33;;;1.45;;
38529;SDS011;24301;54.332;48.386;2023-08-31T19:06:28;2.53;;;1.52;;
38529;SDS011;24301;54.332;48.386;2023-08-31T19:09:01;2.88;;;1.40;;
38529;SDS011;24301;54.332;48.386;2023-08-31T19:11:28;1.92;;;1.38;;